createdAt,value
2019-02-06T00:01:06.318Z,100.00
2019-02-06T00:03:36.710Z,100.00
2019-02-06T00:06:07.484Z,100.00
2019-02-06T00:08:37.586Z,100.00
2019-02-06T00:11:07.986Z,100.00
2019-02-06T00:17:29.278Z,100.00
2019-02-06T00:36:45.214Z,100.00
2019-02-06T00:49:04.984Z,100.00
2019-02-06T00:59:13.675Z,100.00
2019-02-06T01:01:43.857Z,100.00
2019-02-06T01:04:13.926Z,100.00
2019-02-06T01:10:34.810Z,100.00
2019-02-06T01:13:05.271Z,100.00
2019-02-06T01:15:35.336Z,100.00
2019-02-06T01:18:05.721Z,100.00
2019-02-06T01:21:13.154Z,100.00
2019-02-06T01:46:41.604Z,100.00
2019-02-06T01:49:12.054Z,100.00
2019-02-06T01:51:42.564Z,100.00
2019-02-06T01:54:13.126Z,100.00
2019-02-06T02:08:10.851Z,100.00
2019-02-06T02:10:40.966Z,100.00
2019-02-06T02:13:11.055Z,100.00
2019-02-06T02:15:41.319Z,100.00
2019-02-06T02:34:32.529Z,100.00
2019-02-06T02:37:02.769Z,100.00
2019-02-06T02:39:32.747Z,100.00
2019-02-06T02:42:02.991Z,100.00
2019-02-06T02:44:33.357Z,100.00
2019-02-06T02:47:03.362Z,100.00
2019-02-06T02:49:33.390Z,100.00
2019-02-06T02:52:03.443Z,100.00
2019-02-06T02:54:33.631Z,100.00
2019-02-06T02:57:03.882Z,100.00
2019-02-06T02:59:33.819Z,100.00
2019-02-06T03:02:20.968Z,100.00
2019-02-06T03:05:05.177Z,100.00
2019-02-06T03:07:35.270Z,100.00
2019-02-06T03:10:06.271Z,100.00
2019-02-06T03:16:27.420Z,100.00
2019-02-06T03:18:57.441Z,100.00
2019-02-06T03:28:01.872Z,100.00
2019-02-06T03:46:03.715Z,100.00
2019-02-06T03:56:25.866Z,100.00
2019-02-06T03:58:55.810Z,100.00
2019-02-06T04:17:47.211Z,100.00
2019-02-06T04:20:17.334Z,100.00
2019-02-06T04:22:48.184Z,100.00
2019-02-06T04:29:03.078Z,100.00
2019-02-06T04:31:33.117Z,100.00
2019-02-06T04:34:02.972Z,100.00
2019-02-06T04:36:33.124Z,100.00
2019-02-06T04:39:04.122Z,100.00
2019-02-06T04:41:34.103Z,100.00
2019-02-06T04:44:04.147Z,100.00
2019-02-06T04:46:34.319Z,100.00
2019-02-06T04:49:04.613Z,100.00
2019-02-06T04:55:25.778Z,100.00
2019-02-06T05:10:46.838Z,100.00
2019-02-06T05:13:16.834Z,100.00
2019-02-06T05:15:47.084Z,100.00
2019-02-06T05:18:17.146Z,100.00
2019-02-06T05:20:47.316Z,100.00
2019-02-06T05:23:17.791Z,100.00
2019-02-06T05:25:47.691Z,100.00
2019-02-06T05:28:18.440Z,100.00
2019-02-06T05:30:48.891Z,100.00
2019-02-06T05:33:19.365Z,100.00
2019-02-06T05:35:49.659Z,100.00
2019-02-06T05:38:20.159Z,100.00
2019-02-06T05:40:50.629Z,100.00
2019-02-06T05:43:20.795Z,100.00
2019-02-06T05:45:51.111Z,100.00
2019-02-06T05:48:21.274Z,100.00
2019-02-06T05:50:51.584Z,100.00
2019-02-06T05:53:21.499Z,100.00
2019-02-06T05:55:51.961Z,100.00
2019-02-06T05:58:22.239Z,100.00
2019-02-06T06:00:52.635Z,100.00
2019-02-06T06:03:22.804Z,100.00
2019-02-06T06:05:53.741Z,100.00
2019-02-06T06:08:23.671Z,100.00
2019-02-06T06:10:53.614Z,100.00
2019-02-06T06:13:23.781Z,100.00
2019-02-06T06:15:53.867Z,100.00
2019-02-06T06:18:24.505Z,100.00
2019-02-06T06:20:54.732Z,100.00
2019-02-06T06:23:24.911Z,100.00
2019-02-06T06:25:55.147Z,100.00
2019-02-06T06:28:25.056Z,100.00
2019-02-06T06:30:54.997Z,100.00
2019-02-06T06:33:24.940Z,100.00
2019-02-06T06:57:17.649Z,100.00
2019-02-06T06:59:47.594Z,100.00
2019-02-06T07:16:20.792Z,100.00
2019-02-06T07:33:38.325Z,100.00
2019-02-06T07:36:08.622Z,100.00
2019-02-06T07:54:56.411Z,100.00
2019-02-06T08:07:55.649Z,100.00
2019-02-06T08:20:47.152Z,100.00
2019-02-06T08:33:46.760Z,97.05
2019-02-06T08:36:16.694Z,96.03
2019-02-06T08:38:49.550Z,95.79
2019-02-06T08:41:18.618Z,97.38
2019-02-06T08:50:10.599Z,95.56
2019-02-06T08:52:40.748Z,93.04
2019-02-06T08:55:14.715Z,92.65
2019-02-06T08:57:44.770Z,91.90
2019-02-06T09:00:25.896Z,93.16
2019-02-06T09:02:56.137Z,92.13
2019-02-06T09:05:26.776Z,92.82
2019-02-06T09:07:56.836Z,93.18
2019-02-06T09:10:27.123Z,93.09
2019-02-06T09:12:57.980Z,91.16
2019-02-06T09:15:29.945Z,88.00
2019-02-06T09:18:00.328Z,88.95
2019-02-06T09:24:21.604Z,87.62
2019-02-06T09:26:51.637Z,84.96
2019-02-06T09:35:48.798Z,83.78
2019-02-06T09:38:19.026Z,82.55
2019-02-06T09:40:49.725Z,87.08
2019-02-06T09:43:20.144Z,81.39
2019-02-06T09:45:51.017Z,80.70
2019-02-06T09:48:21.136Z,82.92
2019-02-06T09:50:51.206Z,78.06
2019-02-06T09:53:21.094Z,78.71
2019-02-06T09:55:53.350Z,81.83
2019-02-06T10:02:14.650Z,78.67
2019-02-06T10:04:44.937Z,77.26
2019-02-06T10:07:15.152Z,77.28
2019-02-06T10:13:35.650Z,75.16
2019-02-06T10:16:05.818Z,74.70
2019-02-06T10:18:35.782Z,73.79
2019-02-06T10:21:06.168Z,73.43
2019-02-06T10:27:20.852Z,74.87
2019-02-06T10:36:47.685Z,70.32
2019-02-06T10:39:17.656Z,70.07
2019-02-06T10:48:17.576Z,65.07
2019-02-06T10:50:50.739Z,66.27
2019-02-06T11:05:22.089Z,64.76
2019-02-06T11:07:52.561Z,64.01
2019-02-06T11:10:23.960Z,66.00
2019-02-06T11:12:54.244Z,66.07
2019-02-06T11:15:24.939Z,65.72
2019-02-06T11:17:55.753Z,65.65
2019-02-06T11:20:26.535Z,65.56
2019-02-06T11:22:56.784Z,65.02
2019-02-06T11:25:27.242Z,64.37
2019-02-06T11:27:57.224Z,64.99
2019-02-06T11:30:30.404Z,64.98
2019-02-06T11:33:00.781Z,64.81
2019-02-06T11:35:31.059Z,65.73
2019-02-06T11:38:01.384Z,66.08
2019-02-06T11:40:31.706Z,65.22
2019-02-06T11:59:30.362Z,63.33
2019-02-06T12:09:20.157Z,63.33
2019-02-06T12:11:50.544Z,60.91
2019-02-06T12:14:20.470Z,61.77
2019-02-06T12:16:50.925Z,61.70
2019-02-06T12:23:13.110Z,60.32
2019-02-06T12:25:43.081Z,60.10
2019-02-06T12:28:13.061Z,62.00
2019-02-06T12:30:43.171Z,61.53
2019-02-06T12:33:13.217Z,60.55
2019-02-06T12:35:43.626Z,59.98
2019-02-06T12:38:14.088Z,58.95
2019-02-06T12:40:44.301Z,59.99
2019-02-06T12:43:14.404Z,59.19
2019-02-06T12:45:44.382Z,58.35
2019-02-06T12:48:14.529Z,57.41
2019-02-06T12:50:44.583Z,58.02
2019-02-06T12:53:15.178Z,57.97
2019-02-06T12:55:45.430Z,57.48
2019-02-06T12:58:15.973Z,58.64
2019-02-06T13:00:46.031Z,58.89
2019-02-06T13:03:15.949Z,58.62
2019-02-06T13:05:46.299Z,57.40
2019-02-06T13:08:17.549Z,57.19
2019-02-06T13:10:47.657Z,57.95
2019-02-06T13:13:18.010Z,57.14
2019-02-06T13:19:39.159Z,59.09
2019-02-06T13:43:25.727Z,56.36
2019-02-06T13:45:55.945Z,56.21
2019-02-06T13:55:09.866Z,55.30
2019-02-06T13:57:39.949Z,54.50
2019-02-06T14:16:09.911Z,53.35
2019-02-06T14:18:39.829Z,54.56
2019-02-06T14:21:10.083Z,54.95
2019-02-06T14:24:01.528Z,56.14
2019-02-06T14:27:04.202Z,54.67
2019-02-06T14:30:55.827Z,53.81
2019-02-06T14:33:57.707Z,54.93
2019-02-06T14:37:05.918Z,55.93
2019-02-06T14:40:41.019Z,56.71
2019-02-06T14:44:13.120Z,56.47
2019-02-06T14:47:24.628Z,55.60
2019-02-06T14:50:37.784Z,54.62
2019-02-06T14:58:02.885Z,56.49
2019-02-06T15:01:21.033Z,54.91
2019-02-06T15:10:45.447Z,54.27
2019-02-06T15:21:33.937Z,54.23
2019-02-06T15:25:13.970Z,56.01
2019-02-06T15:28:33.171Z,58.91
2019-02-06T15:31:54.383Z,59.67
2019-02-06T15:34:48.107Z,60.94
2019-02-06T15:37:58.947Z,61.41
2019-02-06T15:41:00.277Z,61.35
2019-02-06T15:50:43.423Z,60.89
2019-02-06T15:53:59.182Z,60.61
2019-02-06T15:57:17.859Z,61.73
2019-02-06T16:00:56.486Z,60.95
2019-02-06T16:04:29.480Z,59.99
2019-02-06T16:08:29.553Z,60.96
2019-02-06T16:11:48.167Z,62.31
2019-02-06T16:21:31.771Z,62.19
2019-02-06T16:24:42.543Z,63.06
2019-02-06T16:27:45.233Z,64.03
2019-02-06T16:31:03.008Z,66.36
2019-02-06T16:34:34.445Z,69.05
2019-02-06T16:44:11.235Z,72.35
2019-02-06T16:47:18.949Z,73.22
2019-02-06T16:50:27.310Z,74.76
2019-02-06T16:53:27.107Z,75.83
2019-02-06T16:57:01.764Z,77.60
2019-02-06T17:06:22.433Z,79.36
2019-02-06T17:09:25.245Z,79.30
2019-02-06T17:12:34.640Z,80.03
2019-02-06T17:16:26.102Z,80.90
2019-02-06T17:19:57.857Z,82.12
2019-02-06T17:23:13.736Z,80.37
2019-02-06T17:26:42.510Z,81.63
2019-02-06T17:30:08.777Z,82.78
2019-02-06T17:33:55.565Z,83.66
2019-02-06T17:37:11.298Z,83.67
2019-02-06T17:40:30.132Z,84.44
2019-02-06T17:44:00.907Z,84.94
2019-02-06T17:47:10.416Z,84.68
2019-02-06T17:50:32.857Z,84.85
2019-02-06T17:53:38.370Z,85.12
2019-02-06T17:56:09.181Z,84.57
2019-02-06T17:58:43.647Z,84.30
2019-02-06T18:01:29.768Z,84.73
2019-02-06T18:04:08.398Z,85.30
2019-02-06T18:06:38.509Z,85.94
2019-02-06T18:09:16.317Z,86.53
2019-02-06T18:11:48.954Z,86.73
2019-02-06T18:14:19.292Z,86.85
2019-02-06T18:16:49.679Z,87.44
2019-02-06T18:19:20.157Z,88.69
2019-02-06T18:21:50.955Z,89.83
2019-02-06T18:24:21.106Z,91.45
2019-02-06T18:26:51.515Z,91.05
2019-02-06T18:29:21.490Z,89.74
2019-02-06T18:31:51.807Z,89.74
2019-02-06T18:34:21.891Z,89.51
2019-02-06T18:36:52.134Z,89.39
2019-02-06T18:39:22.965Z,85.59
2019-02-06T18:41:52.875Z,84.23
2019-02-06T18:44:25.099Z,84.51
2019-02-06T18:46:56.502Z,82.02
2019-02-06T18:49:27.137Z,80.40
2019-02-06T18:51:57.856Z,79.39
2019-02-06T18:54:28.131Z,80.25
2019-02-06T18:56:58.123Z,80.81
2019-02-06T18:59:28.835Z,84.78
2019-02-06T19:01:59.259Z,85.72
2019-02-06T19:04:29.274Z,84.66
2019-02-06T19:07:01.137Z,83.44
2019-02-06T19:09:31.600Z,85.81
2019-02-06T19:12:02.157Z,87.43
2019-02-06T19:14:33.051Z,88.75
2019-02-06T19:17:03.255Z,91.31
2019-02-06T19:19:33.516Z,92.05
2019-02-06T19:22:03.654Z,92.58
2019-02-06T19:24:33.821Z,91.96
2019-02-06T19:27:05.085Z,91.99
2019-02-06T19:29:35.089Z,92.46
2019-02-06T19:32:05.278Z,92.48
2019-02-06T19:34:35.202Z,92.91
2019-02-06T19:37:05.434Z,92.21
2019-02-06T19:39:35.531Z,93.67
2019-02-06T19:42:05.815Z,95.56
2019-02-06T19:44:35.962Z,95.86
2019-02-06T19:47:06.275Z,96.89
2019-02-06T19:49:37.702Z,97.98
2019-02-06T19:52:08.159Z,98.21
2019-02-06T19:54:39.032Z,97.42
2019-02-06T19:57:08.944Z,95.42
2019-02-06T19:59:39.208Z,94.82
2019-02-06T20:02:09.320Z,96.03
2019-02-06T20:04:40.056Z,96.93
2019-02-06T20:07:10.774Z,97.42
2019-02-06T20:09:40.936Z,97.66
2019-02-06T20:12:11.224Z,97.51
2019-02-06T20:14:41.135Z,98.06
2019-02-06T20:17:11.118Z,98.06
2019-02-06T20:19:41.190Z,98.24
2019-02-06T20:22:11.232Z,98.64
2019-02-06T20:24:41.369Z,98.95
2019-02-06T20:27:11.548Z,98.56
2019-02-06T20:29:41.718Z,97.64
2019-02-06T20:32:12.382Z,98.85
2019-02-06T20:34:42.300Z,100.00
2019-02-06T20:37:12.229Z,100.00
2019-02-06T20:39:42.408Z,100.00
2019-02-06T20:42:12.897Z,100.00
2019-02-06T20:44:42.801Z,100.00
2019-02-06T20:47:12.907Z,100.00
2019-02-06T20:49:43.036Z,100.00
2019-02-06T20:52:13.270Z,100.00
2019-02-06T20:54:43.189Z,100.00
2019-02-06T20:57:15.711Z,100.00
2019-02-06T20:59:44.886Z,100.00
2019-02-06T21:02:15.425Z,98.88
2019-02-06T21:04:47.102Z,98.61
2019-02-06T21:07:17.296Z,98.80
2019-02-06T21:09:47.533Z,98.77
2019-02-06T21:12:17.724Z,99.38
2019-02-06T21:14:47.671Z,98.19
2019-02-06T21:17:17.987Z,97.63
2019-02-06T21:19:48.803Z,98.53
2019-02-06T21:22:18.716Z,98.51
2019-02-06T21:24:48.846Z,98.39
2019-02-06T21:27:18.754Z,98.93
2019-02-06T21:29:49.158Z,99.51
2019-02-06T21:32:19.800Z,100.00
2019-02-06T21:34:50.054Z,100.00
2019-02-06T21:37:19.982Z,100.00
2019-02-06T21:39:50.469Z,100.00
2019-02-06T21:42:20.692Z,100.00
2019-02-06T21:44:51.315Z,100.00
2019-02-06T21:47:21.285Z,100.00
2019-02-06T21:49:52.159Z,100.00
2019-02-06T21:52:22.072Z,100.00
2019-02-06T21:54:52.296Z,100.00
2019-02-06T21:57:22.347Z,100.00
2019-02-06T21:59:55.605Z,100.00
2019-02-06T22:02:25.527Z,100.00
2019-02-06T22:04:56.018Z,100.00
2019-02-06T22:07:26.275Z,100.00
2019-02-06T22:09:57.257Z,100.00
2019-02-06T22:12:27.820Z,100.00
2019-02-06T22:14:57.847Z,100.00
2019-02-06T22:17:28.058Z,100.00
2019-02-06T22:19:58.312Z,100.00
2019-02-06T22:22:28.698Z,100.00
2019-02-06T22:24:58.877Z,100.00
2019-02-06T22:27:28.897Z,100.00
2019-02-06T22:30:02.084Z,100.00
2019-02-06T22:32:32.225Z,100.00
2019-02-06T22:35:02.772Z,100.00
2019-02-06T22:37:32.684Z,100.00
2019-02-06T22:40:02.777Z,100.00
2019-02-06T22:42:33.254Z,100.00
2019-02-06T22:45:03.861Z,100.00
2019-02-06T22:47:33.938Z,100.00
2019-02-06T22:50:04.334Z,100.00
2019-02-06T22:52:34.745Z,100.00
2019-02-06T22:55:06.361Z,100.00
2019-02-06T22:57:36.871Z,100.00
2019-02-06T23:00:50.392Z,100.00
2019-02-06T23:03:31.699Z,100.00
2019-02-06T23:06:01.995Z,100.00
2019-02-06T23:08:32.411Z,100.00
2019-02-06T23:11:02.992Z,100.00
2019-02-06T23:13:33.505Z,100.00
2019-02-06T23:16:03.912Z,100.00
2019-02-06T23:18:35.233Z,100.00
2019-02-06T23:21:06.020Z,100.00
2019-02-06T23:23:36.360Z,100.00
2019-02-06T23:26:06.575Z,100.00
2019-02-06T23:28:36.562Z,100.00
2019-02-06T23:31:07.578Z,100.00
2019-02-06T23:33:37.551Z,100.00
2019-02-06T23:36:07.940Z,100.00
2019-02-06T23:38:38.200Z,100.00
2019-02-06T23:41:08.509Z,100.00
2019-02-06T23:43:38.549Z,100.00
2019-02-06T23:46:09.047Z,100.00
2019-02-06T23:48:39.210Z,100.00
2019-02-06T23:51:09.637Z,100.00
2019-02-06T23:53:39.882Z,100.00
2019-02-06T23:56:09.949Z,100.00
2019-02-06T23:58:40.459Z,100.00
